sensor_id;sensor_type;location;lat;lon;timestamp;pressure;altitude;pressure_sealevel;temperature;humidity
2549;BME280;1284;53.520;10.248;2022-12-11T00:02:03;100488.09;;;1.56;84.82
2549;BME280;1284;53.520;10.248;2022-12-11T00:04:29;100491.47;;;1.48;84.96
2549;BME280;1284;53.520;10.248;2022-12-11T00:06:55;100486.16;;;1.48;84.96
2549;BME280;1284;53.520;10.248;2022-12-11T00:09:20;100485.28;;;1.52;85.31
2549;BME280;1284;53.520;10.248;2022-12-11T00:11:46;100489.66;;;1.57;85.15
2549;BME280;1284;53.520;10.248;2022-12-11T00:14:12;100487.31;;;1.55;85.29
2549;BME280;1284;53.520;10.248;2022-12-11T00:16:41;100490.16;;;1.59;84.74
2549;BME280;1284;53.520;10.248;2022-12-11T00:19:07;100483.47;;;1.61;84.45
2549;BME280;1284;53.520;10.248;2022-12-11T00:21:33;100479.84;;;1.57;84.51
2549;BME280;1284;53.520;10.248;2022-12-11T00:23:59;100480.44;;;1.54;84.89
2549;BME280;1284;53.520;10.248;2022-12-11T00:26:25;100482.53;;;1.44;85.41
2549;BME280;1284;53.520;10.248;2022-12-11T00:28:55;100490.44;;;1.57;85.00
2549;BME280;1284;53.520;10.248;2022-12-11T00:31:22;100473.94;;;1.60;85.15
2549;BME280;1284;53.520;10.248;2022-12-11T00:33:48;100487.31;;;1.55;84.54
2549;BME280;1284;53.520;10.248;2022-12-11T00:36:16;100480.84;;;1.48;85.05
2549;BME280;1284;53.520;10.248;2022-12-11T00:38:42;100488.81;;;1.48;85.15
2549;BME280;1284;53.520;10.248;2022-12-11T00:41:09;100484.88;;;1.45;85.53
2549;BME280;1284;53.520;10.248;2022-12-11T00:43:35;100485.00;;;1.40;85.38
2549;BME280;1284;53.520;10.248;2022-12-11T00:46:00;100483.53;;;1.34;85.86
2549;BME280;1284;53.520;10.248;2022-12-11T00:48:26;100484.09;;;1.45;86.02
2549;BME280;1284;53.520;10.248;2022-12-11T00:50:52;100485.34;;;1.47;85.80
2549;BME280;1284;53.520;10.248;2022-12-11T00:53:17;100474.19;;;1.37;85.49
2549;BME280;1284;53.520;10.248;2022-12-11T00:55:43;100482.22;;;1.45;85.65
2549;BME280;1284;53.520;10.248;2022-12-11T00:58:10;100483.00;;;1.46;85.61
2549;BME280;1284;53.520;10.248;2022-12-11T01:00:39;100479.59;;;1.32;86.11
2549;BME280;1284;53.520;10.248;2022-12-11T01:03:05;100486.47;;;1.46;86.08
2549;BME280;1284;53.520;10.248;2022-12-11T01:05:31;100488.50;;;1.49;85.75
2549;BME280;1284;53.520;10.248;2022-12-11T01:07:56;100486.34;;;1.51;85.59
2549;BME280;1284;53.520;10.248;2022-12-11T01:10:22;100479.34;;;1.55;85.04
2549;BME280;1284;53.520;10.248;2022-12-11T01:12:58;100489.06;;;1.60;84.85
2549;BME280;1284;53.520;10.248;2022-12-11T01:15:26;100484.69;;;1.42;85.01
2549;BME280;1284;53.520;10.248;2022-12-11T01:17:52;100487.31;;;1.55;84.72
2549;BME280;1284;53.520;10.248;2022-12-11T01:20:19;100491.47;;;1.48;84.56
2549;BME280;1284;53.520;10.248;2022-12-11T01:22:45;100480.28;;;1.37;84.94
2549;BME280;1284;53.520;10.248;2022-12-11T01:25:10;100482.34;;;1.40;85.07
2549;BME280;1284;53.520;10.248;2022-12-11T01:27:39;100485.97;;;1.44;84.61
2549;BME280;1284;53.520;10.248;2022-12-11T01:30:07;100489.47;;;1.53;84.58
2549;BME280;1284;53.520;10.248;2022-12-11T01:32:33;100482.72;;;1.47;84.27
2549;BME280;1284;53.520;10.248;2022-12-11T01:35:01;100479.28;;;1.47;84.50
2549;BME280;1284;53.520;10.248;2022-12-11T01:37:27;100485.56;;;1.51;84.54
2549;BME280;1284;53.520;10.248;2022-12-11T01:39:52;100490.66;;;1.47;83.95
2549;BME280;1284;53.520;10.248;2022-12-11T01:42:19;100493.94;;;1.44;84.03
2549;BME280;1284;53.520;10.248;2022-12-11T01:47:10;100498.13;;;1.45;84.24
2549;BME280;1284;53.520;10.248;2022-12-11T01:49:38;100496.53;;;1.58;83.84
2549;BME280;1284;53.520;10.248;2022-12-11T01:52:15;100500.09;;;1.53;83.57
2549;BME280;1284;53.520;10.248;2022-12-11T01:54:43;100497.56;;;1.48;83.43
2549;BME280;1284;53.520;10.248;2022-12-11T01:57:10;100499.31;;;1.53;83.82
2549;BME280;1284;53.520;10.248;2022-12-11T01:59:39;100490.44;;;1.57;83.87
2549;BME280;1284;53.520;10.248;2022-12-11T02:02:09;100489.00;;;1.51;83.92
2549;BME280;1284;53.520;10.248;2022-12-11T02:04:37;100487.13;;;1.52;83.29
2549;BME280;1284;53.520;10.248;2022-12-11T02:07:04;100485.09;;;1.49;83.76
2549;BME280;1284;53.520;10.248;2022-12-11T02:17:20;100475.47;;;1.39;83.62
2549;BME280;1284;53.520;10.248;2022-12-11T02:20:21;100469.47;;;1.34;83.96
2549;BME280;1284;53.520;10.248;2022-12-11T02:25:45;100474.38;;;1.40;83.51
2549;BME280;1284;53.520;10.248;2022-12-11T02:29:00;100473.50;;;1.45;83.74
2549;BME280;1284;53.520;10.248;2022-12-11T02:31:14;100474.75;;;1.47;83.22
2549;BME280;1284;53.520;10.248;2022-12-11T02:33:48;100478.91;;;1.40;83.93
2549;BME280;1284;53.520;10.248;2022-12-11T02:36:16;100485.28;;;1.39;84.26
2549;BME280;1284;53.520;10.248;2022-12-11T02:41:17;100480.66;;;1.44;84.19
2549;BME280;1284;53.520;10.248;2022-12-11T02:43:44;100480.47;;;1.41;84.71
2549;BME280;1284;53.520;10.248;2022-12-11T02:46:11;100477.72;;;1.46;84.34
2549;BME280;1284;53.520;10.248;2022-12-11T02:48:39;100466.78;;;1.47;84.34
2549;BME280;1284;53.520;10.248;2022-12-11T02:51:07;100464.13;;;1.47;84.73
2549;BME280;1284;53.520;10.248;2022-12-11T02:53:36;100471.25;;;1.38;84.95
2549;BME280;1284;53.520;10.248;2022-12-11T02:56:10;100462.72;;;1.28;85.45
2549;BME280;1284;53.520;10.248;2022-12-11T02:58:43;100466.16;;;1.28;85.90
2549;BME280;1284;53.520;10.248;2022-12-11T03:01:10;100471.63;;;1.32;85.61
2549;BME280;1284;53.520;10.248;2022-12-11T03:03:35;100476.19;;;1.31;85.57
2549;BME280;1284;53.520;10.248;2022-12-11T03:06:01;100474.69;;;1.39;86.23
2549;BME280;1284;53.520;10.248;2022-12-11T03:08:28;100472.03;;;1.39;86.18
2549;BME280;1284;53.520;10.248;2022-12-11T03:10:53;100470.19;;;1.39;85.64
2549;BME280;1284;53.520;10.248;2022-12-11T03:13:20;100475.66;;;1.43;85.50
2549;BME280;1284;53.520;10.248;2022-12-11T03:16:23;100483.34;;;1.31;85.72
2549;BME280;1284;53.520;10.248;2022-12-11T03:21:52;100480.38;;;1.32;86.63
2549;BME280;1284;53.520;10.248;2022-12-11T03:26:53;100472.44;;;1.32;86.37
2549;BME280;1284;53.520;10.248;2022-12-11T03:29:22;100470.94;;;1.40;86.20
2549;BME280;1284;53.520;10.248;2022-12-11T03:34:32;100467.88;;;1.46;86.11
2549;BME280;1284;53.520;10.248;2022-12-11T03:37:04;100479.00;;;1.35;86.47
2549;BME280;1284;53.520;10.248;2022-12-11T03:39:35;100471.44;;;1.28;86.69
2549;BME280;1284;53.520;10.248;2022-12-11T03:42:05;100474.00;;;1.33;87.01
2549;BME280;1284;53.520;10.248;2022-12-11T03:44:33;100475.69;;;1.29;86.61
2549;BME280;1284;53.520;10.248;2022-12-11T03:47:02;100469.47;;;1.34;86.65
2549;BME280;1284;53.520;10.248;2022-12-11T03:49:33;100467.53;;;1.39;86.74
2549;BME280;1284;53.520;10.248;2022-12-11T03:52:01;100473.78;;;1.43;85.92
2549;BME280;1284;53.520;10.248;2022-12-11T03:54:28;100472.41;;;1.46;86.14
2549;BME280;1284;53.520;10.248;2022-12-11T03:56:56;100470.06;;;1.44;86.33
2549;BME280;1284;53.520;10.248;2022-12-11T03:59:23;100478.31;;;1.43;85.89
2549;BME280;1284;53.520;10.248;2022-12-11T04:01:49;100472.63;;;1.36;85.53
2549;BME280;1284;53.520;10.248;2022-12-11T04:04:14;100469.19;;;1.35;85.59
2549;BME280;1284;53.520;10.248;2022-12-11T04:06:40;100465.84;;;1.30;86.28
2549;BME280;1284;53.520;10.248;2022-12-11T04:09:05;100457.88;;;1.30;86.15
2549;BME280;1284;53.520;10.248;2022-12-11T04:11:31;100466.56;;;1.35;86.19
2549;BME280;1284;53.520;10.248;2022-12-11T04:14:05;100455.69;;;1.45;85.91
2549;BME280;1284;53.520;10.248;2022-12-11T04:16:49;100455.78;;;1.54;86.02
2549;BME280;1284;53.520;10.248;2022-12-11T04:19:15;100449.38;;;1.55;85.68
2549;BME280;1284;53.520;10.248;2022-12-11T04:22:00;100447.16;;;1.48;85.15
2549;BME280;1284;53.520;10.248;2022-12-11T04:24:46;100455.00;;;1.53;85.52
2549;BME280;1284;53.520;10.248;2022-12-11T04:27:13;100455.78;;;1.54;85.22
2549;BME280;1284;53.520;10.248;2022-12-11T04:29:38;100451.13;;;1.59;83.75
2549;BME280;1284;53.520;10.248;2022-12-11T04:32:03;100447.16;;;1.48;83.53
2549;BME280;1284;53.520;10.248;2022-12-11T04:34:29;100449.50;;;1.50;83.66
2549;BME280;1284;53.520;10.248;2022-12-11T04:36:54;100452.94;;;1.50;83.94
2549;BME280;1284;53.520;10.248;2022-12-11T04:39:20;100443.91;;;1.51;83.74
2549;BME280;1284;53.520;10.248;2022-12-11T04:41:45;100450.38;;;1.45;83.65
2549;BME280;1284;53.520;10.248;2022-12-11T04:44:11;100451.00;;;1.42;84.15
2549;BME280;1284;53.520;10.248;2022-12-11T04:46:36;100447.66;;;1.50;84.47
2549;BME280;1284;53.520;10.248;2022-12-11T04:49:02;100446.66;;;1.46;84.34
2549;BME280;1284;53.520;10.248;2022-12-11T04:51:27;100450.34;;;1.37;84.23
2549;BME280;1284;53.520;10.248;2022-12-11T04:53:53;100451.63;;;1.39;84.14
2549;BME280;1284;53.520;10.248;2022-12-11T04:56:19;100451.88;;;1.38;83.57
2549;BME280;1284;53.520;10.248;2022-12-11T04:58:45;100446.59;;;1.38;83.68
2549;BME280;1284;53.520;10.248;2022-12-11T05:01:17;100451.63;;;1.26;82.96
2549;BME280;1284;53.520;10.248;2022-12-11T05:03:46;100449.88;;;1.21;82.53
2549;BME280;1284;53.520;10.248;2022-12-11T05:06:12;100445.44;;;1.30;82.40
2549;BME280;1284;53.520;10.248;2022-12-11T05:08:39;100441.22;;;1.29;82.68
2549;BME280;1284;53.520;10.248;2022-12-11T05:11:08;100444.16;;;1.41;81.99
2549;BME280;1284;53.520;10.248;2022-12-11T05:13:34;100444.72;;;1.38;81.24
2549;BME280;1284;53.520;10.248;2022-12-11T05:16:03;100441.63;;;1.23;81.14
2549;BME280;1284;53.520;10.248;2022-12-11T05:18:28;100439.63;;;1.28;81.37
2549;BME280;1284;53.520;10.248;2022-12-11T05:21:06;100449.22;;;1.38;81.37
2549;BME280;1284;53.520;10.248;2022-12-11T05:23:33;100449.13;;;1.43;81.69
2549;BME280;1284;53.520;10.248;2022-12-11T05:26:02;100445.69;;;1.42;81.69
2549;BME280;1284;53.520;10.248;2022-12-11T05:28:30;100444.72;;;1.38;81.21
2549;BME280;1284;53.520;10.248;2022-12-11T05:31:12;100448.47;;;1.37;80.40
2549;BME280;1284;53.520;10.248;2022-12-11T05:33:38;100439.06;;;1.31;79.57
2549;BME280;1284;53.520;10.248;2022-12-11T05:36:05;100440.25;;;1.25;79.85
2549;BME280;1284;53.520;10.248;2022-12-11T05:38:31;100432.78;;;1.27;79.67
2549;BME280;1284;53.520;10.248;2022-12-11T05:40:59;100436.97;;;1.28;79.34
2549;BME280;1284;53.520;10.248;2022-12-11T05:43:25;100429.94;;;1.24;79.42
2549;BME280;1284;53.520;10.248;2022-12-11T05:45:51;100434.75;;;1.22;79.62
2549;BME280;1284;53.520;10.248;2022-12-11T05:48:17;100428.66;;;1.21;79.20
2549;BME280;1284;53.520;10.248;2022-12-11T05:50:42;100426.53;;;1.10;79.46
2549;BME280;1284;53.520;10.248;2022-12-11T05:53:08;100430.25;;;0.95;79.77
2549;BME280;1284;53.520;10.248;2022-12-11T05:55:34;100423.31;;;0.85;79.81
2549;BME280;1284;53.520;10.248;2022-12-11T05:58:00;100429.28;;;0.77;80.70
2549;BME280;1284;53.520;10.248;2022-12-11T06:00:25;100428.91;;;0.70;81.19
2549;BME280;1284;53.520;10.248;2022-12-11T06:02:51;100432.53;;;0.61;81.15
2549;BME280;1284;53.520;10.248;2022-12-11T06:05:16;100430.25;;;0.54;81.50
2549;BME280;1284;53.520;10.248;2022-12-11T06:07:41;100432.53;;;0.47;81.55
2549;BME280;1284;53.520;10.248;2022-12-11T06:10:07;100437.69;;;0.39;82.30
2549;BME280;1284;53.520;10.248;2022-12-11T06:12:33;100450.47;;;0.37;82.43
2549;BME280;1284;53.520;10.248;2022-12-11T06:14:58;100441.53;;;0.33;82.82
2549;BME280;1284;53.520;10.248;2022-12-11T06:19:49;100451.34;;;0.46;82.07
2549;BME280;1284;53.520;10.248;2022-12-11T06:22:14;100446.06;;;0.46;82.22
2549;BME280;1284;53.520;10.248;2022-12-11T06:24:40;100442.81;;;0.62;81.53
2549;BME280;1284;53.520;10.248;2022-12-11T06:27:05;100444.00;;;0.56;80.87
2549;BME280;1284;53.520;10.248;2022-12-11T06:29:31;100450.25;;;0.47;81.41
2549;BME280;1284;53.520;10.248;2022-12-11T06:31:56;100448.28;;;0.39;81.94
2549;BME280;1284;53.520;10.248;2022-12-11T06:34:22;100448.72;;;0.46;81.60
2549;BME280;1284;53.520;10.248;2022-12-11T06:36:47;100452.53;;;0.40;81.74
2549;BME280;1284;53.520;10.248;2022-12-11T06:39:13;100456.13;;;0.30;81.95
2549;BME280;1284;53.520;10.248;2022-12-11T06:41:38;100447.31;;;0.21;82.33
2549;BME280;1284;53.520;10.248;2022-12-11T06:44:03;100451.88;;;0.16;82.92
2549;BME280;1284;53.520;10.248;2022-12-11T06:46:30;100447.28;;;0.08;83.57
2549;BME280;1284;53.520;10.248;2022-12-11T06:48:55;100441.94;;;-0.06;84.18
2549;BME280;1284;53.520;10.248;2022-12-11T06:51:22;100443.66;;;-0.15;84.68
2549;BME280;1284;53.520;10.248;2022-12-11T06:53:55;100450.81;;;-0.16;84.94
2549;BME280;1284;53.520;10.248;2022-12-11T06:56:22;100450.38;;;-0.23;85.89
2549;BME280;1284;53.520;10.248;2022-12-11T06:58:48;100446.34;;;-0.34;85.89
2549;BME280;1284;53.520;10.248;2022-12-11T07:01:24;100450.47;;;-0.28;86.39
2549;BME280;1284;53.520;10.248;2022-12-11T07:03:56;100455.47;;;-0.26;86.22
2549;BME280;1284;53.520;10.248;2022-12-11T07:06:22;100457.31;;;-0.27;85.88
2549;BME280;1284;53.520;10.248;2022-12-11T07:08:49;100471.63;;;-0.28;86.61
2549;BME280;1284;53.520;10.248;2022-12-11T07:11:15;100460.97;;;-0.23;85.95
2549;BME280;1284;53.520;10.248;2022-12-11T07:13:42;100473.91;;;-0.21;86.88
2549;BME280;1284;53.520;10.248;2022-12-11T07:16:09;100473.63;;;-0.20;86.23
2549;BME280;1284;53.520;10.248;2022-12-11T07:18:37;100476.59;;;-0.08;86.40
2549;BME280;1284;53.520;10.248;2022-12-11T07:21:03;100482.47;;;-0.11;85.82
2549;BME280;1284;53.520;10.248;2022-12-11T07:23:29;100479.13;;;-0.16;86.18
2549;BME280;1284;53.520;10.248;2022-12-11T07:25:55;100483.06;;;-0.14;85.74
2549;BME280;1284;53.520;10.248;2022-12-11T07:28:21;100493.41;;;-0.17;86.14
2549;BME280;1284;53.520;10.248;2022-12-11T07:30:47;100499.78;;;-0.18;85.83
2549;BME280;1284;53.520;10.248;2022-12-11T07:33:12;100502.63;;;-0.15;85.97
2549;BME280;1284;53.520;10.248;2022-12-11T07:35:38;100504.00;;;-0.17;85.88
2549;BME280;1284;53.520;10.248;2022-12-11T07:38:03;100503.06;;;-0.26;86.02
2549;BME280;1284;53.520;10.248;2022-12-11T07:40:29;100501.22;;;-0.26;85.90
2549;BME280;1284;53.520;10.248;2022-12-11T07:42:54;100506.44;;;-0.21;85.67
2549;BME280;1284;53.520;10.248;2022-12-11T07:45:20;100498.00;;;-0.23;86.08
2549;BME280;1284;53.520;10.248;2022-12-11T07:47:45;100504.00;;;-0.36;85.60
2549;BME280;1284;53.520;10.248;2022-12-11T07:50:11;100491.84;;;-0.37;85.73
2549;BME280;1284;53.520;10.248;2022-12-11T07:52:36;100500.72;;;-0.46;85.66
2549;BME280;1284;53.520;10.248;2022-12-11T07:55:02;100488.91;;;-0.54;86.48
2549;BME280;1284;53.520;10.248;2022-12-11T07:57:28;100483.75;;;-0.64;86.49
2549;BME280;1284;53.520;10.248;2022-12-11T07:59:53;100484.41;;;-0.53;85.94
2549;BME280;1284;53.520;10.248;2022-12-11T08:02:19;100490.50;;;-0.53;86.02
2549;BME280;1284;53.520;10.248;2022-12-11T08:04:46;100485.13;;;-0.48;86.22
2549;BME280;1284;53.520;10.248;2022-12-11T08:07:11;100485.63;;;-0.46;86.15
2549;BME280;1284;53.520;10.248;2022-12-11T08:09:37;100490.91;;;-0.46;86.14
2549;BME280;1284;53.520;10.248;2022-12-11T08:12:03;100481.75;;;-0.35;85.55
2549;BME280;1284;53.520;10.248;2022-12-11T08:14:28;100481.84;;;-0.40;86.10
2549;BME280;1284;53.520;10.248;2022-12-11T08:16:53;100488.84;;;-0.49;86.12
2549;BME280;1284;53.520;10.248;2022-12-11T08:19:19;100494.84;;;-0.62;86.64
2549;BME280;1284;53.520;10.248;2022-12-11T08:21:45;100483.28;;;-0.47;86.21
2549;BME280;1284;53.520;10.248;2022-12-11T08:24:12;100488.78;;;-0.44;86.64
2549;BME280;1284;53.520;10.248;2022-12-11T08:26:40;100483.91;;;-0.37;86.06
2549;BME280;1284;53.520;10.248;2022-12-11T08:29:06;100488.66;;;-0.34;86.08
2549;BME280;1284;53.520;10.248;2022-12-11T08:31:32;100483.66;;;-0.35;86.05
2549;BME280;1284;53.520;10.248;2022-12-11T08:33:58;100482.34;;;-0.38;86.09
2549;BME280;1284;53.520;10.248;2022-12-11T08:36:24;100483.50;;;-0.44;86.35
2549;BME280;1284;53.520;10.248;2022-12-11T08:38:50;100476.66;;;-0.45;86.55
2549;BME280;1284;53.520;10.248;2022-12-11T08:41:22;100476.41;;;-0.48;86.26
2549;BME280;1284;53.520;10.248;2022-12-11T08:43:48;100478.84;;;-0.52;86.76
2549;BME280;1284;53.520;10.248;2022-12-11T08:46:16;100474.00;;;-0.45;87.07
2549;BME280;1284;53.520;10.248;2022-12-11T08:48:42;100478.50;;;-0.45;86.86
2549;BME280;1284;53.520;10.248;2022-12-11T08:51:11;100469.34;;;-0.34;86.52
2549;BME280;1284;53.520;10.248;2022-12-11T08:53:37;100473.72;;;-0.43;86.28
2549;BME280;1284;53.520;10.248;2022-12-11T08:56:06;100468.03;;;-0.37;87.23
2549;BME280;1284;53.520;10.248;2022-12-11T08:58:32;100461.78;;;-0.41;87.86
2549;BME280;1284;53.520;10.248;2022-12-11T09:00:57;100455.38;;;-0.03;88.00
2549;BME280;1284;53.520;10.248;2022-12-11T09:03:23;100458.88;;;0.25;87.82
2549;BME280;1284;53.520;10.248;2022-12-11T09:05:49;100469.97;;;0.41;86.77
2549;BME280;1284;53.520;10.248;2022-12-11T09:08:15;100469.91;;;0.46;85.18
2549;BME280;1284;53.520;10.248;2022-12-11T09:10:40;100460.81;;;0.65;85.65
2549;BME280;1284;53.520;10.248;2022-12-11T09:13:06;100465.63;;;0.77;85.02
2549;BME280;1284;53.520;10.248;2022-12-11T09:15:31;100467.78;;;1.02;84.74
2549;BME280;1284;53.520;10.248;2022-12-11T09:17:57;100460.97;;;1.23;83.99
2549;BME280;1284;53.520;10.248;2022-12-11T09:20:22;100460.63;;;1.38;83.85
2549;BME280;1284;53.520;10.248;2022-12-11T09:22:48;100454.06;;;1.36;82.44
2549;BME280;1284;53.520;10.248;2022-12-11T09:25:13;100456.69;;;1.36;82.55
2549;BME280;1284;53.520;10.248;2022-12-11T09:27:39;100458.34;;;1.45;82.43
2549;BME280;1284;53.520;10.248;2022-12-11T09:30:05;100456.53;;;1.32;80.20
2549;BME280;1284;53.520;10.248;2022-12-11T09:32:30;100450.28;;;1.50;80.76
2549;BME280;1284;53.520;10.248;2022-12-11T09:34:56;100458.75;;;1.74;80.89
2549;BME280;1284;53.520;10.248;2022-12-11T09:37:21;100455.75;;;1.90;80.44
2549;BME280;1284;53.520;10.248;2022-12-11T09:39:47;100453.31;;;2.02;79.40
2549;BME280;1284;53.520;10.248;2022-12-11T09:42:40;100441.88;;;2.15;79.26
2549;BME280;1284;53.520;10.248;2022-12-11T09:45:12;100450.44;;;2.12;78.30
2549;BME280;1284;53.520;10.248;2022-12-11T09:47:47;100446.91;;;2.25;78.60
2549;BME280;1284;53.520;10.248;2022-12-11T09:50:20;100449.47;;;2.38;77.72
2549;BME280;1284;53.520;10.248;2022-12-11T09:52:58;100446.94;;;2.64;75.95
2549;BME280;1284;53.520;10.248;2022-12-11T09:55:34;100448.22;;;2.36;75.64
2549;BME280;1284;53.520;10.248;2022-12-11T09:58:15;100447.28;;;2.32;76.00
2549;BME280;1284;53.520;10.248;2022-12-11T10:00:48;100450.66;;;2.24;75.01
2549;BME280;1284;53.520;10.248;2022-12-11T10:06:47;100444.47;;;2.37;75.47
2549;BME280;1284;53.520;10.248;2022-12-11T10:09:10;100444.78;;;2.35;75.53
2549;BME280;1284;53.520;10.248;2022-12-11T10:17:18;100439.22;;;2.15;75.29
2549;BME280;1284;53.520;10.248;2022-12-11T10:19:44;100439.78;;;2.03;75.22
2549;BME280;1284;53.520;10.248;2022-12-11T10:22:20;100451.69;;;2.14;74.43
2549;BME280;1284;53.520;10.248;2022-12-11T10:25:17;100443.97;;;2.26;73.77
2549;BME280;1284;53.520;10.248;2022-12-11T10:27:43;100435.69;;;2.28;73.82
2549;BME280;1284;53.520;10.248;2022-12-11T10:32:51;100429.50;;;2.41;74.36
2549;BME280;1284;53.520;10.248;2022-12-11T10:35:24;100424.19;;;2.41;73.74
2549;BME280;1284;53.520;10.248;2022-12-11T10:37:54;100406.06;;;2.43;74.02
2549;BME280;1284;53.520;10.248;2022-12-11T10:40:21;100406.69;;;2.40;73.38
2549;BME280;1284;53.520;10.248;2022-12-11T10:42:54;100401.19;;;2.36;73.71
2549;BME280;1284;53.520;10.248;2022-12-11T10:45:19;100405.72;;;2.36;73.72
2549;BME280;1284;53.520;10.248;2022-12-11T10:47:45;100416.84;;;2.46;73.91
2549;BME280;1284;53.520;10.248;2022-12-11T10:50:22;100403.09;;;2.44;73.76
2549;BME280;1284;53.520;10.248;2022-12-11T10:52:48;100398.56;;;2.45;73.50
2549;BME280;1284;53.520;10.248;2022-12-11T10:55:30;100401.97;;;2.37;74.12
2549;BME280;1284;53.520;10.248;2022-12-11T10:58:03;100407.91;;;2.34;73.97
2549;BME280;1284;53.520;10.248;2022-12-11T11:00:36;100402.59;;;2.34;74.41
2549;BME280;1284;53.520;10.248;2022-12-11T11:03:19;100403.06;;;2.36;75.06
2549;BME280;1284;53.520;10.248;2022-12-11T11:05:45;100389.34;;;2.42;75.01
2549;BME280;1284;53.520;10.248;2022-12-11T11:08:18;100397.47;;;2.46;74.92
2549;BME280;1284;53.520;10.248;2022-12-11T11:10:59;100400.44;;;2.44;75.01
2549;BME280;1284;53.520;10.248;2022-12-11T11:13:30;100399.69;;;2.52;74.84
2549;BME280;1284;53.520;10.248;2022-12-11T11:16:11;100413.56;;;2.41;73.06
2549;BME280;1284;53.520;10.248;2022-12-11T11:18:38;100399.31;;;2.37;73.41
2549;BME280;1284;53.520;10.248;2022-12-11T11:21:05;100409.28;;;2.31;73.48
2549;BME280;1284;53.520;10.248;2022-12-11T11:23:30;100403.34;;;2.34;72.97
2549;BME280;1284;53.520;10.248;2022-12-11T11:25:58;100397.41;;;2.29;72.94
2549;BME280;1284;53.520;10.248;2022-12-11T11:28:29;100396.09;;;2.18;72.44
2549;BME280;1284;53.520;10.248;2022-12-11T11:31:07;100389.31;;;2.34;72.17
2549;BME280;1284;53.520;10.248;2022-12-11T11:33:35;100398.63;;;2.23;72.22
2549;BME280;1284;53.520;10.248;2022-12-11T11:36:04;100385.72;;;2.30;71.97
2549;BME280;1284;53.520;10.248;2022-12-11T11:38:37;100395.09;;;2.36;72.35
2549;BME280;1284;53.520;10.248;2022-12-11T11:41:28;100382.91;;;2.35;72.67
2549;BME280;1284;53.520;10.248;2022-12-11T11:43:58;100380.72;;;2.37;72.90
2549;BME280;1284;53.520;10.248;2022-12-11T11:46:34;100374.03;;;2.39;73.00
2549;BME280;1284;53.520;10.248;2022-12-11T11:51:45;100373.88;;;2.44;72.75
2549;BME280;1284;53.520;10.248;2022-12-11T11:56:49;100364.50;;;2.47;72.06
2549;BME280;1284;53.520;10.248;2022-12-11T11:59:27;100370.16;;;2.54;72.24
2549;BME280;1284;53.520;10.248;2022-12-11T12:01:56;100361.72;;;2.52;71.99
2549;BME280;1284;53.520;10.248;2022-12-11T12:04:22;100371.38;;;2.39;71.55
2549;BME280;1284;53.520;10.248;2022-12-11T12:07:06;100366.22;;;2.43;71.78
2549;BME280;1284;53.520;10.248;2022-12-11T12:17:51;100359.19;;;2.47;73.68
2549;BME280;1284;53.520;10.248;2022-12-11T12:23:19;100365.47;;;2.51;72.84
2549;BME280;1284;53.520;10.248;2022-12-11T12:26:05;100372.16;;;2.40;73.22
2549;BME280;1284;53.520;10.248;2022-12-11T12:31:37;100366.91;;;2.65;72.13
2549;BME280;1284;53.520;10.248;2022-12-11T12:37:16;100376.19;;;2.85;72.84
2549;BME280;1284;53.520;10.248;2022-12-11T12:39:48;100365.22;;;2.78;72.41
2549;BME280;1284;53.520;10.248;2022-12-11T12:42:41;100368.34;;;2.80;71.61
2549;BME280;1284;53.520;10.248;2022-12-11T12:47:45;100371.75;;;2.63;71.47
2549;BME280;1284;53.520;10.248;2022-12-11T12:52:45;100372.44;;;2.86;70.32
2549;BME280;1284;53.520;10.248;2022-12-11T13:00:09;100362.22;;;2.62;70.27
2549;BME280;1284;53.520;10.248;2022-12-11T13:02:38;100365.66;;;2.63;70.61
2549;BME280;1284;53.520;10.248;2022-12-11T13:05:27;100364.75;;;2.76;71.29
2549;BME280;1284;53.520;10.248;2022-12-11T13:07:56;100367.72;;;2.83;70.67
2549;BME280;1284;53.520;10.248;2022-12-11T13:12:51;100372.44;;;2.86;71.21
2549;BME280;1284;53.520;10.248;2022-12-11T13:15:31;100364.75;;;2.85;70.83
2549;BME280;1284;53.520;10.248;2022-12-11T13:17:58;100363.28;;;2.61;70.64
2549;BME280;1284;53.520;10.248;2022-12-11T13:20:26;100349.09;;;2.57;71.08
2549;BME280;1284;53.520;10.248;2022-12-11T13:23:09;100344.41;;;2.71;70.72
2549;BME280;1284;53.520;10.248;2022-12-11T13:25:51;100347.53;;;2.73;70.66
2549;BME280;1284;53.520;10.248;2022-12-11T13:28:21;100340.00;;;2.58;72.70
2549;BME280;1284;53.520;10.248;2022-12-11T13:31:24;100339.34;;;2.44;73.41
2549;BME280;1284;53.520;10.248;2022-12-11T13:33:53;100338.56;;;2.44;72.93
2549;BME280;1284;53.520;10.248;2022-12-11T13:36:25;100338.75;;;2.56;73.34
2549;BME280;1284;53.520;10.248;2022-12-11T13:39:05;100353.78;;;2.60;73.32
2549;BME280;1284;53.520;10.248;2022-12-11T13:41:34;100349.72;;;2.63;73.43
2549;BME280;1284;53.520;10.248;2022-12-11T13:44:01;100359.25;;;2.64;73.05
2549;BME280;1284;53.520;10.248;2022-12-11T13:46:31;100357.84;;;2.66;73.83
2549;BME280;1284;53.520;10.248;2022-12-11T13:49:00;100360.81;;;2.73;73.52
2549;BME280;1284;53.520;10.248;2022-12-11T13:51:29;100368.50;;;2.75;73.18
2549;BME280;1284;53.520;10.248;2022-12-11T13:54:15;100367.09;;;2.78;73.66
2549;BME280;1284;53.520;10.248;2022-12-11T13:59:37;100371.34;;;2.87;72.68
2549;BME280;1284;53.520;10.248;2022-12-11T14:02:27;100371.00;;;2.89;72.61
2549;BME280;1284;53.520;10.248;2022-12-11T14:04:57;100376.81;;;2.91;72.61
2549;BME280;1284;53.520;10.248;2022-12-11T14:07:29;100376.19;;;2.94;72.33
2549;BME280;1284;53.520;10.248;2022-12-11T14:10:06;100377.00;;;2.94;71.76
2549;BME280;1284;53.520;10.248;2022-12-11T14:12:34;100373.84;;;2.92;72.02
2549;BME280;1284;53.520;10.248;2022-12-11T14:15:02;100384.19;;;2.94;71.95
2549;BME280;1284;53.520;10.248;2022-12-11T14:17:30;100382.47;;;2.98;71.74
2549;BME280;1284;53.520;10.248;2022-12-11T14:19:58;100377.44;;;2.96;71.91
2549;BME280;1284;53.520;10.248;2022-12-11T14:22:27;100386.38;;;3.00;72.29
2549;BME280;1284;53.520;10.248;2022-12-11T14:24:55;100390.91;;;3.00;71.95
2549;BME280;1284;53.520;10.248;2022-12-11T14:27:25;100390.13;;;2.99;71.72
2549;BME280;1284;53.520;10.248;2022-12-11T14:29:52;100392.00;;;2.99;72.02
2549;BME280;1284;53.520;10.248;2022-12-11T14:32:30;100389.97;;;3.04;71.68
2549;BME280;1284;53.520;10.248;2022-12-11T14:34:57;100382.31;;;2.94;71.42
2549;BME280;1284;53.520;10.248;2022-12-11T14:37:24;100383.88;;;2.95;71.81